HELX  Luxor International  Airport

Luxor, Egypt

Add Bookmark
Status IATA
Operational LXR
Latitude Longitude
25° 40' 15" N 32° 42' 23" E
25.671000 32.706600
Local (DST + 2) UTC (GMT + 2)
Mar 29, 2015 12:11 Mar 28, 2015 22:11
Sunrise-Sunset Local UTC
Begin Civil Twilight 05:19 03:19
Sunrise 05:42 03:42
Sunset 06:05 16:05
End Civil Twilight 06:28 16:28

Current Weather

METAR Observed VFR
HELX 282100Z 00000KT CAVOK 26/11 Q1006 NOSIG Sat, Mar 28, 2015 @ 21:00 UTC
(1 Hour, 11 Minutes ago)
Visual Flight Rules
Wind Visibility Clouds Conditions
Calm 10 km or more
  • Clear skies
  • No significant weather
Temperatures Readings Precipitation
Current Temp 26°C (79°F)
Dewpoint 11°C (52°F)
Humidity 39%
Altimeter 29.7"Hg
Sea Level Pressure 1006mb
Field Elevation 288.71'
None Recorded

Forecast Weather

TAF
TAF HELX 281700Z 2818/2924 32008KT CAVOK
From To
Sat, Mar 28, 2015 @ 18:00 UTC Mon, Mar 30, 2015 @ 00:00 UTC
Wind Visibility Conditions
320° at 8 knots (15 kph) 10 km or more
  • No significant weather

24 Hour Weather History

Loading
-

24 Hour Weather Graphs

Loading
-

CheckWX.com is intended as a tool to help pilots better visualize weather data. It is not intended as a substitute for an official weather briefing obtained from a Flight Service Station. CheckWX.com does not meet the FAA requirements for an official pre-flight weather briefing. Therefore, it's important that pilots still call and obtain an official FSS pre-flight weather briefing.